AirNav   Bose ProFlight Series 2 Headset
 
 444 users online  

9VA5 Bluegrass Heliport
Bluemont, Virginia, USA

GOING TO BLUEMONT?


FAA INFORMATION EFFECTIVE 26 MARCH 2020

Location

FAA Identifier: 9VA5
Lat/Long: 39-03-47.9160N 077-53-24.1210W
39-03.798600N 077-53.402017W
39.0633100,-77.8900336
(estimated)
Elevation: 1707.4 ft. / 520 m (estimated)
Variation: 10W (2010)
From city: 3 miles E of BLUEMONT, VA
Time zone: UTC -4 (UTC -5 during Standard Time)
Zip code: 20135

Heliport Operations

Heliport use: Private use. Permission required prior to landing
Activation date: 09/2004
Control tower: no
ARTCC: WASHINGTON CENTER
FSS: LEESBURG FLIGHT SERVICE STATION
NOTAMs facility: FDC (NOTAM-D service not available)
Attendance: UNATNDD
Wind indicator: lighted
Segmented circle: no
Lights: FOR PERIMETER LGTS CALL 540-542-2013.

Heliport Communications

WX AWOS-3 at OKV (13 nm W): 124.85 (540-662-6970)
WX AWOS-3 at JYO (16 nm E): 125.225 (703-777-3781)
WX AWOS-3 at FRR (19 nm SW): 121.85 (540-635-5377)

Nearby radio navigation aids

VOR radial/distance  VOR name  Freq  Var
LDNr056/19.3LINDEN VORTAC114.3006W
MRBr193/19.4MARTINSBURG VORTAC112.1007W
AMLr299/21.2ARMEL VOR/DME113.5008W
CSNr003/25.4CASANOVA VORTAC116.3006W
FDKr237/(31.8)FREDERICK VOR109.0008W
HGRr189/(38.1)HAGERSTOWN VOR109.8007W

 
NDB name  Hdg/Dist  Freq  Var  ID
CAVERNS060/34.924509WLUA .-.. ..- .-
NAILR011/36.535110WMSQ -- ... --.-
GEORGETOWN292/36.632309WGTN --. - -.

Heliport Services

Runway Information

Helipad H1

Dimensions: 50 x 50 ft. / 15 x 15 m
Surface: concrete
Runway edge lights: PERI
Latitude: 39-03.798600N
Longitude: 077-53.402017W
Elevation: 1707.4 ft.
Traffic pattern: leftleft

Heliport Ownership and Management from official FAA records

Ownership: Publicly-owned
Owner: FEMA
19844 BLUE RIDGE MOUNTAIN RD
BLUEMONT, VA 20135
Phone 540-542-2013
Manager: PAUL THIBODEAU
19844 BLUE RIDGE MOUNTAIN RD
BLUEMONT, VA 20135
Phone (540) 542-5786

Additional Remarks

50 FT TREES 200 FT W AND 50 FT BLDG 360 FT E OF HELIPAD.
FOR CD CTC POTOMAC APCH AT 866-709-4993.
REMARKS: NORMAL OPR HRS 1245-2130Z++ M-F. AUTH MIL ACFT ONLY, PPR REQUIRED, 540-542-3014
COMMUNICATIONS: ADVISORY 126.2 241.0; POTOMAC APPROACH 120.45 306.925

Instrument Procedures

NOTE: All procedures below are presented as PDF files. If you need a reader for these files, you should download the free Adobe Reader.

NOT FOR NAVIGATION. Please procure official charts for flight.
FAA instrument procedures published for use from 26 March 2020 at 0901Z to 23 April 2020 at 0900Z.

 
IAPs - Instrument Approach Procedures
COPTER RNAV (GPS) 040 **CHANGED**   download (91KB)
COPTER VOR/DME OR TACAN 056 **CHANGED**   download (100KB)

Other nearby airports with instrument procedures:

2VG2 - Upperville Airport (6 nm S)
KOKV - Winchester Regional Airport (13 nm W)
KJYO - Leesburg Executive Airport (16 nm E)
KFRR - Front Royal-Warren County Airport (19 nm SW)
KMRB - Eastern WV Regional Airport/Shepherd Field (21 nm N)
 
Loc | Ops | Rwys | IFR | FBO | Links
Com | Nav | Svcs | Stats | Notes
Area around 9VA5 (Bluegrass Heliport)
 
Road maps at: MapQuest Bing Google
 
Aerial photo
No photo
 
Sectional chart

 
Airport distance calculator
Flying to Bluegrass Heliport? Find the distance to fly.

From to 9VA5

Sunrise and sunset
Times for 31-Mar-2020
 Local
(UTC-4)
 Zulu
(UTC)
Morning civil twilight06:3010:30
Sunrise06:5710:57
Sunset19:3423:34
Evening civil twilight20:0100:01

Current date and time
Zulu (UTC)  31-Mar-2020 10:52:28
Local (UTC-4)  31-Mar-2020 06:52:28
 
METAR
KOKV 
13nm W 
311035Z AUTO 33003KT 10SM OVC050 07/01 A2998 RMK AO2
KJYO 
15nm E 
311035Z AUTO 00000KT 10SM OVC050 08/03 A3001 RMK AO2
KFRR 
19nm SW 
311035Z AUTO 00000KT 10SM OVC050 08/02 A2999 RMK AO1
KMRB 
21nm N 
310953Z AUTO 35005KT 10SM OVC060 08/02 A2998 RMK AO2 SLP151 T00780022
KIAD 
22nm E 
310952Z 36007KT 10SM BKN055 OVC250 10/02 A2998 RMK AO2 SLP151 T01000017
TAF
KMRB 
21nm N 
310837Z 3109/0106 31005KT P6SM SCT035 BKN040 FM311800 07004KT P6SM SCT025 BKN050 FM312100 08005KT P6SM -RA SCT025 OVC050 FM312300 08006KT P6SM -RA SCT020 OVC025 FM010100 08007KT 4SM -RA SCT003 OVC015 FM010300 09007KT 2SM -RA SCT003 OVC008
KIAD 
22nm E 
310837Z 3109/0112 33006KT P6SM SCT045 BKN050 FM311500 01005KT P6SM SCT030 BKN050 FM312100 08006KT P6SM -RA SCT020 OVC035 FM312300 09008KT P6SM -RA OVC020 FM010200 08008KT 4SM -RA OVC008 FM010900 03007KT 6SM BR SCT015 OVC020
NOTAMs
Click for the latest NOTAMs
NOTAMs are issued by the DoD/FAA and will open in a separate window not controlled by AirNav.

 

 
 

Would you like to see your business listed on this page?

 If your business provides an interesting product or service to pilots, flight crews, aircraft, or users of the Bluegrass Heliport, you should consider listing it here.  To start the listing process, click on the button below
 
Add a business
 

Other Pages about Bluegrass Heliport

Update a link
 
Copyright © AirNav, LLC. All rights reserved. Privacy Policy  Contact